sensor_id;sensor_type;location;lat;lon;timestamp;temperature;humidity
3186;DHT22;1604;53.700;10.252;2023-04-24T00:00:43;12.40;99.90
3186;DHT22;1604;53.700;10.252;2023-04-24T00:03:45;12.30;99.90
3186;DHT22;1604;53.700;10.252;2023-04-24T00:06:47;12.20;99.90
3186;DHT22;1604;53.700;10.252;2023-04-24T00:09:54;12.20;99.90
3186;DHT22;1604;53.700;10.252;2023-04-24T00:12:56;12.20;99.90
3186;DHT22;1604;53.700;10.252;2023-04-24T00:16:02;12.10;99.90
3186;DHT22;1604;53.700;10.252;2023-04-24T00:19:04;12.00;99.90
3186;DHT22;1604;53.700;10.252;2023-04-24T00:22:06;11.90;99.90
3186;DHT22;1604;53.700;10.252;2023-04-24T00:25:08;11.90;99.90
3186;DHT22;1604;53.700;10.252;2023-04-24T00:28:10;11.90;99.90
3186;DHT22;1604;53.700;10.252;2023-04-24T00:31:14;11.80;99.90
3186;DHT22;1604;53.700;10.252;2023-04-24T00:34:15;11.80;99.90
3186;DHT22;1604;53.700;10.252;2023-04-24T00:37:18;11.70;99.90
3186;DHT22;1604;53.700;10.252;2023-04-24T00:40:21;11.60;99.90
3186;DHT22;1604;53.700;10.252;2023-04-24T00:43:23;11.60;99.90
3186;DHT22;1604;53.700;10.252;2023-04-24T00:46:26;11.60;99.90
3186;DHT22;1604;53.700;10.252;2023-04-24T00:49:28;11.60;99.90
3186;DHT22;1604;53.700;10.252;2023-04-24T00:52:30;11.60;99.90
3186;DHT22;1604;53.700;10.252;2023-04-24T00:55:33;11.60;99.90
3186;DHT22;1604;53.700;10.252;2023-04-24T00:58:35;11.50;99.90
3186;DHT22;1604;53.700;10.252;2023-04-24T01:01:38;11.50;99.90
3186;DHT22;1604;53.700;10.252;2023-04-24T01:04:42;11.50;99.90
3186;DHT22;1604;53.700;10.252;2023-04-24T01:07:45;11.50;99.90
3186;DHT22;1604;53.700;10.252;2023-04-24T01:10:51;11.50;99.90
3186;DHT22;1604;53.700;10.252;2023-04-24T01:13:53;11.40;99.90
3186;DHT22;1604;53.700;10.252;2023-04-24T01:16:56;11.40;99.90
3186;DHT22;1604;53.700;10.252;2023-04-24T01:19:59;11.40;99.90
3186;DHT22;1604;53.700;10.252;2023-04-24T01:23:08;11.40;99.90
3186;DHT22;1604;53.700;10.252;2023-04-24T01:26:11;11.40;99.90
3186;DHT22;1604;53.700;10.252;2023-04-24T01:29:13;11.40;99.90
3186;DHT22;1604;53.700;10.252;2023-04-24T01:32:15;11.40;99.90
3186;DHT22;1604;53.700;10.252;2023-04-24T01:35:17;11.40;99.90
3186;DHT22;1604;53.700;10.252;2023-04-24T01:38:20;11.40;99.90
3186;DHT22;1604;53.700;10.252;2023-04-24T01:41:22;11.50;99.90
3186;DHT22;1604;53.700;10.252;2023-04-24T01:44:25;11.50;99.90
3186;DHT22;1604;53.700;10.252;2023-04-24T01:47:27;11.50;99.90
3186;DHT22;1604;53.700;10.252;2023-04-24T01:50:30;11.40;99.90
3186;DHT22;1604;53.700;10.252;2023-04-24T01:53:33;11.40;99.90
3186;DHT22;1604;53.700;10.252;2023-04-24T01:56:35;11.40;99.90
3186;DHT22;1604;53.700;10.252;2023-04-24T01:59:38;11.40;99.90
3186;DHT22;1604;53.700;10.252;2023-04-24T02:02:40;11.40;99.90
3186;DHT22;1604;53.700;10.252;2023-04-24T02:05:44;11.40;99.90
3186;DHT22;1604;53.700;10.252;2023-04-24T02:08:47;11.40;99.90
3186;DHT22;1604;53.700;10.252;2023-04-24T02:11:49;11.40;99.90
3186;DHT22;1604;53.700;10.252;2023-04-24T02:14:51;11.40;99.90
3186;DHT22;1604;53.700;10.252;2023-04-24T02:17:53;11.40;99.90
3186;DHT22;1604;53.700;10.252;2023-04-24T02:20:54;11.30;99.90
3186;DHT22;1604;53.700;10.252;2023-04-24T02:23:58;11.30;99.90
3186;DHT22;1604;53.700;10.252;2023-04-24T02:27:00;11.30;99.90
3186;DHT22;1604;53.700;10.252;2023-04-24T02:30:04;11.30;99.90
3186;DHT22;1604;53.700;10.252;2023-04-24T02:33:06;11.30;99.90
3186;DHT22;1604;53.700;10.252;2023-04-24T02:36:08;11.30;99.90
3186;DHT22;1604;53.700;10.252;2023-04-24T02:39:11;11.30;99.90
3186;DHT22;1604;53.700;10.252;2023-04-24T02:42:13;11.20;99.90
3186;DHT22;1604;53.700;10.252;2023-04-24T02:45:16;11.30;99.90
3186;DHT22;1604;53.700;10.252;2023-04-24T02:48:18;11.30;99.90
3186;DHT22;1604;53.700;10.252;2023-04-24T02:51:21;11.30;99.90
3186;DHT22;1604;53.700;10.252;2023-04-24T02:54:24;11.20;99.90
3186;DHT22;1604;53.700;10.252;2023-04-24T02:57:26;11.20;99.90
3186;DHT22;1604;53.700;10.252;2023-04-24T03:00:28;11.10;99.90
3186;DHT22;1604;53.700;10.252;2023-04-24T03:03:30;11.10;99.90
3186;DHT22;1604;53.700;10.252;2023-04-24T03:06:32;11.10;99.90
3186;DHT22;1604;53.700;10.252;2023-04-24T03:09:37;11.00;99.90
3186;DHT22;1604;53.700;10.252;2023-04-24T03:12:39;10.90;99.90
3186;DHT22;1604;53.700;10.252;2023-04-24T03:15:41;10.90;99.90
3186;DHT22;1604;53.700;10.252;2023-04-24T03:18:42;10.90;99.90
3186;DHT22;1604;53.700;10.252;2023-04-24T03:21:44;10.80;99.90
3186;DHT22;1604;53.700;10.252;2023-04-24T03:24:48;10.80;99.90
3186;DHT22;1604;53.700;10.252;2023-04-24T03:27:50;10.80;99.90
3186;DHT22;1604;53.700;10.252;2023-04-24T03:30:53;10.80;99.90
3186;DHT22;1604;53.700;10.252;2023-04-24T03:33:55;10.70;99.90
3186;DHT22;1604;53.700;10.252;2023-04-24T03:36:57;10.70;99.90
3186;DHT22;1604;53.700;10.252;2023-04-24T03:40:00;10.70;99.90
3186;DHT22;1604;53.700;10.252;2023-04-24T03:43:02;10.70;99.90
3186;DHT22;1604;53.700;10.252;2023-04-24T03:46:04;10.70;99.90
3186;DHT22;1604;53.700;10.252;2023-04-24T03:49:06;10.70;99.90
3186;DHT22;1604;53.700;10.252;2023-04-24T03:52:08;10.60;99.90
3186;DHT22;1604;53.700;10.252;2023-04-24T03:55:11;10.50;99.90
3186;DHT22;1604;53.700;10.252;2023-04-24T03:58:13;10.50;99.90
3186;DHT22;1604;53.700;10.252;2023-04-24T04:01:15;10.50;99.90
3186;DHT22;1604;53.700;10.252;2023-04-24T04:04:17;10.50;99.90
3186;DHT22;1604;53.700;10.252;2023-04-24T04:07:19;10.50;99.90
3186;DHT22;1604;53.700;10.252;2023-04-24T04:10:22;10.50;99.90
3186;DHT22;1604;53.700;10.252;2023-04-24T04:13:24;10.40;99.90
3186;DHT22;1604;53.700;10.252;2023-04-24T04:16:26;10.40;99.90
3186;DHT22;1604;53.700;10.252;2023-04-24T04:19:28;10.40;99.90
3186;DHT22;1604;53.700;10.252;2023-04-24T04:22:30;10.40;99.90
3186;DHT22;1604;53.700;10.252;2023-04-24T04:25:33;10.40;99.90
3186;DHT22;1604;53.700;10.252;2023-04-24T04:28:35;10.30;99.90
3186;DHT22;1604;53.700;10.252;2023-04-24T04:31:38;10.30;99.90
3186;DHT22;1604;53.700;10.252;2023-04-24T04:34:40;10.30;99.90
3186;DHT22;1604;53.700;10.252;2023-04-24T04:37:42;10.20;99.90
3186;DHT22;1604;53.700;10.252;2023-04-24T04:40:45;10.20;99.90
3186;DHT22;1604;53.700;10.252;2023-04-24T04:43:47;10.20;99.90
3186;DHT22;1604;53.700;10.252;2023-04-24T04:46:49;10.20;99.90
3186;DHT22;1604;53.700;10.252;2023-04-24T04:49:53;10.20;99.90
3186;DHT22;1604;53.700;10.252;2023-04-24T04:52:55;10.20;99.90
3186;DHT22;1604;53.700;10.252;2023-04-24T04:55:59;10.20;99.90
3186;DHT22;1604;53.700;10.252;2023-04-24T04:59:01;10.20;99.90
3186;DHT22;1604;53.700;10.252;2023-04-24T05:02:03;10.40;99.90
3186;DHT22;1604;53.700;10.252;2023-04-24T05:05:05;10.40;99.90
3186;DHT22;1604;53.700;10.252;2023-04-24T05:08:08;10.50;99.90
3186;DHT22;1604;53.700;10.252;2023-04-24T05:11:11;10.60;99.90
3186;DHT22;1604;53.700;10.252;2023-04-24T05:14:13;10.70;99.90
3186;DHT22;1604;53.700;10.252;2023-04-24T05:17:15;10.80;99.90
3186;DHT22;1604;53.700;10.252;2023-04-24T05:20:17;10.90;99.90
3186;DHT22;1604;53.700;10.252;2023-04-24T05:23:19;10.90;99.90
3186;DHT22;1604;53.700;10.252;2023-04-24T05:26:22;11.00;99.90
3186;DHT22;1604;53.700;10.252;2023-04-24T05:29:24;11.10;99.90
3186;DHT22;1604;53.700;10.252;2023-04-24T05:32:26;11.20;99.90
3186;DHT22;1604;53.700;10.252;2023-04-24T05:35:28;11.30;99.90
3186;DHT22;1604;53.700;10.252;2023-04-24T05:38:30;11.40;99.90
3186;DHT22;1604;53.700;10.252;2023-04-24T05:41:33;11.60;99.90
3186;DHT22;1604;53.700;10.252;2023-04-24T05:44:36;11.80;99.90
3186;DHT22;1604;53.700;10.252;2023-04-24T05:47:37;12.00;99.90
3186;DHT22;1604;53.700;10.252;2023-04-24T05:50:39;12.10;99.90
3186;DHT22;1604;53.700;10.252;2023-04-24T05:53:41;12.20;99.90
3186;DHT22;1604;53.700;10.252;2023-04-24T05:56:44;12.30;99.50
3186;DHT22;1604;53.700;10.252;2023-04-24T05:59:47;12.40;99.00
3186;DHT22;1604;53.700;10.252;2023-04-24T06:02:49;12.40;99.50
3186;DHT22;1604;53.700;10.252;2023-04-24T06:05:52;12.60;98.70
3186;DHT22;1604;53.700;10.252;2023-04-24T06:08:53;12.80;97.90
3186;DHT22;1604;53.700;10.252;2023-04-24T06:11:57;12.90;97.30
3186;DHT22;1604;53.700;10.252;2023-04-24T06:15:00;13.00;96.60
3186;DHT22;1604;53.700;10.252;2023-04-24T06:18:02;13.00;97.10
3186;DHT22;1604;53.700;10.252;2023-04-24T06:21:05;13.10;96.20
3186;DHT22;1604;53.700;10.252;2023-04-24T06:24:07;13.20;96.30
3186;DHT22;1604;53.700;10.252;2023-04-24T06:27:10;13.40;95.30
3186;DHT22;1604;53.700;10.252;2023-04-24T06:30:12;13.60;95.10
3186;DHT22;1604;53.700;10.252;2023-04-24T06:33:14;13.70;94.60
3186;DHT22;1604;53.700;10.252;2023-04-24T06:36:17;13.80;93.10
3186;DHT22;1604;53.700;10.252;2023-04-24T06:39:19;13.90;94.00
3186;DHT22;1604;53.700;10.252;2023-04-24T06:42:22;14.10;93.80
3186;DHT22;1604;53.700;10.252;2023-04-24T06:45:25;14.30;91.20
3186;DHT22;1604;53.700;10.252;2023-04-24T06:48:27;14.40;90.10
3186;DHT22;1604;53.700;10.252;2023-04-24T06:51:29;14.50;91.20
3186;DHT22;1604;53.700;10.252;2023-04-24T06:54:33;14.50;89.80
3186;DHT22;1604;53.700;10.252;2023-04-24T06:57:37;14.60;89.00
3186;DHT22;1604;53.700;10.252;2023-04-24T07:00:39;14.60;88.50
3186;DHT22;1604;53.700;10.252;2023-04-24T07:03:40;14.70;89.50
3186;DHT22;1604;53.700;10.252;2023-04-24T07:06:43;14.90;88.20
3186;DHT22;1604;53.700;10.252;2023-04-24T07:09:45;15.00;88.50
3186;DHT22;1604;53.700;10.252;2023-04-24T07:12:48;15.20;87.60
3186;DHT22;1604;53.700;10.252;2023-04-24T07:15:50;15.30;86.30
3186;DHT22;1604;53.700;10.252;2023-04-24T07:18:54;15.50;85.60
3186;DHT22;1604;53.700;10.252;2023-04-24T07:21:56;15.60;85.70
3186;DHT22;1604;53.700;10.252;2023-04-24T07:24:59;15.50;84.60
3186;DHT22;1604;53.700;10.252;2023-04-24T07:28:02;15.40;85.00
3186;DHT22;1604;53.700;10.252;2023-04-24T07:31:05;15.40;84.30
3186;DHT22;1604;53.700;10.252;2023-04-24T07:34:07;15.30;85.70
3186;DHT22;1604;53.700;10.252;2023-04-24T07:37:08;15.50;84.90
3186;DHT22;1604;53.700;10.252;2023-04-24T07:40:11;15.40;85.10
3186;DHT22;1604;53.700;10.252;2023-04-24T07:43:16;15.40;84.70
3186;DHT22;1604;53.700;10.252;2023-04-24T07:46:18;15.40;85.10
3186;DHT22;1604;53.700;10.252;2023-04-24T07:49:20;15.40;85.40
3186;DHT22;1604;53.700;10.252;2023-04-24T07:52:22;15.40;83.90
3186;DHT22;1604;53.700;10.252;2023-04-24T07:55:24;15.50;84.30
3186;DHT22;1604;53.700;10.252;2023-04-24T07:58:28;15.40;84.60
3186;DHT22;1604;53.700;10.252;2023-04-24T08:01:30;15.30;83.50
3186;DHT22;1604;53.700;10.252;2023-04-24T08:04:32;15.10;83.50
3186;DHT22;1604;53.700;10.252;2023-04-24T08:07:33;15.20;84.80
3186;DHT22;1604;53.700;10.252;2023-04-24T08:10:36;15.30;84.50
3186;DHT22;1604;53.700;10.252;2023-04-24T08:13:39;15.40;84.70
3186;DHT22;1604;53.700;10.252;2023-04-24T08:16:41;15.70;83.60
3186;DHT22;1604;53.700;10.252;2023-04-24T08:19:43;15.80;81.50
3186;DHT22;1604;53.700;10.252;2023-04-24T08:22:48;16.00;82.80
3186;DHT22;1604;53.700;10.252;2023-04-24T08:25:50;16.20;82.00
3186;DHT22;1604;53.700;10.252;2023-04-24T08:28:54;16.30;80.70
3186;DHT22;1604;53.700;10.252;2023-04-24T08:31:55;16.40;81.00
3186;DHT22;1604;53.700;10.252;2023-04-24T08:34:58;16.30;80.10
3186;DHT22;1604;53.700;10.252;2023-04-24T08:38:00;16.10;78.30
3186;DHT22;1604;53.700;10.252;2023-04-24T08:41:03;15.80;79.50
3186;DHT22;1604;53.700;10.252;2023-04-24T08:44:07;15.60;81.40
3186;DHT22;1604;53.700;10.252;2023-04-24T08:47:09;15.40;80.40
3186;DHT22;1604;53.700;10.252;2023-04-24T08:50:12;15.20;82.50
3186;DHT22;1604;53.700;10.252;2023-04-24T08:53:14;15.10;84.80
3186;DHT22;1604;53.700;10.252;2023-04-24T08:56:17;15.00;84.20
3186;DHT22;1604;53.700;10.252;2023-04-24T08:59:21;14.80;85.30
3186;DHT22;1604;53.700;10.252;2023-04-24T09:02:23;14.90;86.00
3186;DHT22;1604;53.700;10.252;2023-04-24T09:05:27;14.90;86.00
3186;DHT22;1604;53.700;10.252;2023-04-24T09:08:30;15.00;85.40
3186;DHT22;1604;53.700;10.252;2023-04-24T09:11:32;15.00;84.80
3186;DHT22;1604;53.700;10.252;2023-04-24T09:14:36;14.90;86.00
3186;DHT22;1604;53.700;10.252;2023-04-24T09:17:40;14.90;84.10
3186;DHT22;1604;53.700;10.252;2023-04-24T09:20:58;14.90;85.00
3186;DHT22;1604;53.700;10.252;2023-04-24T09:24:02;14.90;84.80
3186;DHT22;1604;53.700;10.252;2023-04-24T09:27:05;14.90;84.00
3186;DHT22;1604;53.700;10.252;2023-04-24T09:30:09;15.00;83.80
3186;DHT22;1604;53.700;10.252;2023-04-24T09:33:13;15.00;83.00
3186;DHT22;1604;53.700;10.252;2023-04-24T09:36:17;15.10;83.30
3186;DHT22;1604;53.700;10.252;2023-04-24T09:39:19;15.00;83.70
3186;DHT22;1604;53.700;10.252;2023-04-24T09:42:24;15.10;86.00
3186;DHT22;1604;53.700;10.252;2023-04-24T09:45:35;15.20;83.80
3186;DHT22;1604;53.700;10.252;2023-04-24T09:48:38;15.20;83.50
3186;DHT22;1604;53.700;10.252;2023-04-24T09:51:40;15.30;85.30
3186;DHT22;1604;53.700;10.252;2023-04-24T09:54:42;15.40;83.90
3186;DHT22;1604;53.700;10.252;2023-04-24T09:57:48;15.30;82.40
3186;DHT22;1604;53.700;10.252;2023-04-24T10:00:53;15.30;81.90
3186;DHT22;1604;53.700;10.252;2023-04-24T10:03:56;15.20;81.30
3186;DHT22;1604;53.700;10.252;2023-04-24T10:06:58;15.30;80.80
3186;DHT22;1604;53.700;10.252;2023-04-24T10:10:01;15.20;82.80
3186;DHT22;1604;53.700;10.252;2023-04-24T10:13:04;15.30;81.00
3186;DHT22;1604;53.700;10.252;2023-04-24T10:16:07;15.30;81.80
3186;DHT22;1604;53.700;10.252;2023-04-24T10:19:09;15.40;80.50
3186;DHT22;1604;53.700;10.252;2023-04-24T10:22:14;15.20;83.70
3186;DHT22;1604;53.700;10.252;2023-04-24T10:25:19;15.10;82.40
3186;DHT22;1604;53.700;10.252;2023-04-24T10:28:21;15.20;82.30
3186;DHT22;1604;53.700;10.252;2023-04-24T10:31:25;15.20;82.60
3186;DHT22;1604;53.700;10.252;2023-04-24T10:34:27;15.10;84.20
3186;DHT22;1604;53.700;10.252;2023-04-24T10:37:35;15.20;83.00
3186;DHT22;1604;53.700;10.252;2023-04-24T10:40:38;15.30;85.90
3186;DHT22;1604;53.700;10.252;2023-04-24T10:43:40;15.50;82.20
3186;DHT22;1604;53.700;10.252;2023-04-24T10:46:45;15.60;81.50
3186;DHT22;1604;53.700;10.252;2023-04-24T10:49:50;15.50;81.50
3186;DHT22;1604;53.700;10.252;2023-04-24T10:52:52;15.40;81.40
3186;DHT22;1604;53.700;10.252;2023-04-24T10:56:02;15.20;81.40
3186;DHT22;1604;53.700;10.252;2023-04-24T10:59:07;15.00;82.70
3186;DHT22;1604;53.700;10.252;2023-04-24T11:02:14;14.90;85.10
3186;DHT22;1604;53.700;10.252;2023-04-24T11:05:16;15.00;85.00
3186;DHT22;1604;53.700;10.252;2023-04-24T11:08:27;14.90;84.40
3186;DHT22;1604;53.700;10.252;2023-04-24T11:11:29;14.90;84.40
3186;DHT22;1604;53.700;10.252;2023-04-24T11:15:02;14.70;83.80
3186;DHT22;1604;53.700;10.252;2023-04-24T11:18:04;14.60;85.10
3186;DHT22;1604;53.700;10.252;2023-04-24T11:21:10;14.50;86.10
3186;DHT22;1604;53.700;10.252;2023-04-24T11:24:38;14.40;85.70
3186;DHT22;1604;53.700;10.252;2023-04-24T11:27:42;14.20;87.00
3186;DHT22;1604;53.700;10.252;2023-04-24T11:30:45;14.10;87.30
3186;DHT22;1604;53.700;10.252;2023-04-24T11:33:47;14.10;87.30
3186;DHT22;1604;53.700;10.252;2023-04-24T11:36:49;14.10;88.60
3186;DHT22;1604;53.700;10.252;2023-04-24T11:39:55;14.30;88.70
3186;DHT22;1604;53.700;10.252;2023-04-24T11:43:00;14.60;86.30
3186;DHT22;1604;53.700;10.252;2023-04-24T11:46:05;14.70;84.90
3186;DHT22;1604;53.700;10.252;2023-04-24T11:49:07;14.80;87.30
3186;DHT22;1604;53.700;10.252;2023-04-24T11:52:09;15.00;85.50
3186;DHT22;1604;53.700;10.252;2023-04-24T11:55:23;15.10;83.90
3186;DHT22;1604;53.700;10.252;2023-04-24T11:58:27;15.20;83.10
3186;DHT22;1604;53.700;10.252;2023-04-24T12:01:42;15.20;83.10
3186;DHT22;1604;53.700;10.252;2023-04-24T12:04:45;15.20;82.80
3186;DHT22;1604;53.700;10.252;2023-04-24T12:07:46;15.10;83.20
3186;DHT22;1604;53.700;10.252;2023-04-24T12:10:51;15.00;83.30
3186;DHT22;1604;53.700;10.252;2023-04-24T12:13:53;15.00;80.70
3186;DHT22;1604;53.700;10.252;2023-04-24T12:16:56;15.00;81.20
3186;DHT22;1604;53.700;10.252;2023-04-24T12:20:00;15.10;81.70
3186;DHT22;1604;53.700;10.252;2023-04-24T12:23:03;15.20;82.20
3186;DHT22;1604;53.700;10.252;2023-04-24T12:26:05;15.30;80.30
3186;DHT22;1604;53.700;10.252;2023-04-24T12:29:07;15.40;79.20
3186;DHT22;1604;53.700;10.252;2023-04-24T12:32:17;15.30;76.10
3186;DHT22;1604;53.700;10.252;2023-04-24T12:35:20;15.30;78.40
3186;DHT22;1604;53.700;10.252;2023-04-24T12:38:25;15.30;76.70
3186;DHT22;1604;53.700;10.252;2023-04-24T12:41:27;15.40;74.20
3186;DHT22;1604;53.700;10.252;2023-04-24T12:44:33;15.40;74.60
3186;DHT22;1604;53.700;10.252;2023-04-24T12:47:36;15.60;73.30
3186;DHT22;1604;53.700;10.252;2023-04-24T12:50:38;15.60;75.10
3186;DHT22;1604;53.700;10.252;2023-04-24T12:53:40;15.60;74.40
3186;DHT22;1604;53.700;10.252;2023-04-24T12:56:42;15.70;74.30
3186;DHT22;1604;53.700;10.252;2023-04-24T12:59:44;15.70;74.40
3186;DHT22;1604;53.700;10.252;2023-04-24T13:02:47;15.70;75.20
3186;DHT22;1604;53.700;10.252;2023-04-24T13:05:49;15.70;74.60
3186;DHT22;1604;53.700;10.252;2023-04-24T13:08:51;15.70;73.90
3186;DHT22;1604;53.700;10.252;2023-04-24T13:11:54;15.60;73.10
3186;DHT22;1604;53.700;10.252;2023-04-24T13:14:58;15.50;75.30
3186;DHT22;1604;53.700;10.252;2023-04-24T13:18:01;15.40;77.10
3186;DHT22;1604;53.700;10.252;2023-04-24T13:21:03;15.30;75.80
3186;DHT22;1604;53.700;10.252;2023-04-24T13:24:05;15.20;75.80
3186;DHT22;1604;53.700;10.252;2023-04-24T13:27:08;14.90;77.00
3186;DHT22;1604;53.700;10.252;2023-04-24T13:30:11;14.70;79.50
3186;DHT22;1604;53.700;10.252;2023-04-24T13:33:15;14.50;78.80
3186;DHT22;1604;53.700;10.252;2023-04-24T13:36:17;14.40;80.00
3186;DHT22;1604;53.700;10.252;2023-04-24T13:39:19;14.20;80.70
3186;DHT22;1604;53.700;10.252;2023-04-24T13:42:20;14.10;82.60
3186;DHT22;1604;53.700;10.252;2023-04-24T13:45:22;13.90;86.50
3186;DHT22;1604;53.700;10.252;2023-04-24T13:48:26;13.70;90.20
3186;DHT22;1604;53.700;10.252;2023-04-24T13:51:28;13.50;91.70
3186;DHT22;1604;53.700;10.252;2023-04-24T13:54:30;13.40;91.20
3186;DHT22;1604;53.700;10.252;2023-04-24T13:57:32;13.30;93.20
3186;DHT22;1604;53.700;10.252;2023-04-24T14:00:33;13.20;94.10
3186;DHT22;1604;53.700;10.252;2023-04-24T14:03:38;13.10;94.00
3186;DHT22;1604;53.700;10.252;2023-04-24T14:06:40;13.00;95.30
3186;DHT22;1604;53.700;10.252;2023-04-24T14:09:42;13.00;96.30
3186;DHT22;1604;53.700;10.252;2023-04-24T14:12:44;13.00;96.90
3186;DHT22;1604;53.700;10.252;2023-04-24T14:15:46;13.00;96.40
3186;DHT22;1604;53.700;10.252;2023-04-24T14:18:49;13.00;95.70
3186;DHT22;1604;53.700;10.252;2023-04-24T14:21:51;13.00;95.60
3186;DHT22;1604;53.700;10.252;2023-04-24T14:24:54;13.00;94.90
3186;DHT22;1604;53.700;10.252;2023-04-24T14:27:56;13.10;95.40
3186;DHT22;1604;53.700;10.252;2023-04-24T14:30:58;13.10;94.30
3186;DHT22;1604;53.700;10.252;2023-04-24T14:34:01;13.10;94.10
3186;DHT22;1604;53.700;10.252;2023-04-24T14:37:03;13.10;92.40
3186;DHT22;1604;53.700;10.252;2023-04-24T14:40:06;13.00;92.30
3186;DHT22;1604;53.700;10.252;2023-04-24T14:43:08;12.90;93.50
3186;DHT22;1604;53.700;10.252;2023-04-24T14:46:10;12.80;94.10
3186;DHT22;1604;53.700;10.252;2023-04-24T14:49:13;12.70;94.40
3186;DHT22;1604;53.700;10.252;2023-04-24T14:52:16;12.60;95.30
3186;DHT22;1604;53.700;10.252;2023-04-24T14:55:18;12.60;96.20
3186;DHT22;1604;53.700;10.252;2023-04-24T14:58:20;12.60;97.00
3186;DHT22;1604;53.700;10.252;2023-04-24T15:01:22;12.60;97.50
3186;DHT22;1604;53.700;10.252;2023-04-24T15:04:26;12.70;97.00
3186;DHT22;1604;53.700;10.252;2023-04-24T15:07:28;12.70;96.90
3186;DHT22;1604;53.700;10.252;2023-04-24T15:10:30;12.80;95.70
3186;DHT22;1604;53.700;10.252;2023-04-24T15:13:32;12.70;95.10
3186;DHT22;1604;53.700;10.252;2023-04-24T15:16:34;12.60;98.10
3186;DHT22;1604;53.700;10.252;2023-04-24T15:19:37;12.40;99.90
3186;DHT22;1604;53.700;10.252;2023-04-24T15:22:39;12.10;99.90
3186;DHT22;1604;53.700;10.252;2023-04-24T15:25:41;11.80;99.90
3186;DHT22;1604;53.700;10.252;2023-04-24T15:28:43;11.60;99.90
3186;DHT22;1604;53.700;10.252;2023-04-24T15:31:47;11.40;99.90
3186;DHT22;1604;53.700;10.252;2023-04-24T15:34:50;11.20;99.90
3186;DHT22;1604;53.700;10.252;2023-04-24T15:37:52;11.10;99.90
3186;DHT22;1604;53.700;10.252;2023-04-24T15:40:54;11.00;99.90
3186;DHT22;1604;53.700;10.252;2023-04-24T15:43:56;10.90;99.90
3186;DHT22;1604;53.700;10.252;2023-04-24T15:50:03;10.70;99.90
3186;DHT22;1604;53.700;10.252;2023-04-24T15:53:05;10.70;99.90
3186;DHT22;1604;53.700;10.252;2023-04-24T15:56:07;10.60;99.90
3186;DHT22;1604;53.700;10.252;2023-04-24T15:59:09;10.50;99.90
3186;DHT22;1604;53.700;10.252;2023-04-24T16:02:12;10.50;99.90
3186;DHT22;1604;53.700;10.252;2023-04-24T16:05:19;10.40;99.90
3186;DHT22;1604;53.700;10.252;2023-04-24T16:08:23;10.30;99.90
3186;DHT22;1604;53.700;10.252;2023-04-24T16:11:25;10.10;99.90
3186;DHT22;1604;53.700;10.252;2023-04-24T16:14:27;10.00;99.90
3186;DHT22;1604;53.700;10.252;2023-04-24T16:17:29;9.90;99.90
3186;DHT22;1604;53.700;10.252;2023-04-24T16:20:33;9.80;99.90
3186;DHT22;1604;53.700;10.252;2023-04-24T16:23:34;9.70;99.90
3186;DHT22;1604;53.700;10.252;2023-04-24T16:26:36;9.60;99.90
3186;DHT22;1604;53.700;10.252;2023-04-24T16:29:38;9.60;99.90
3186;DHT22;1604;53.700;10.252;2023-04-24T16:32:40;9.50;99.90
3186;DHT22;1604;53.700;10.252;2023-04-24T16:35:44;9.40;99.90
3186;DHT22;1604;53.700;10.252;2023-04-24T16:38:46;9.40;99.90
3186;DHT22;1604;53.700;10.252;2023-04-24T16:41:48;9.30;99.90
3186;DHT22;1604;53.700;10.252;2023-04-24T16:44:51;9.20;99.90
3186;DHT22;1604;53.700;10.252;2023-04-24T16:47:52;9.10;99.90
3186;DHT22;1604;53.700;10.252;2023-04-24T16:50:56;9.00;99.90
3186;DHT22;1604;53.700;10.252;2023-04-24T16:53:58;8.90;99.90
3186;DHT22;1604;53.700;10.252;2023-04-24T16:57:01;8.70;99.90
3186;DHT22;1604;53.700;10.252;2023-04-24T17:00:03;8.70;99.90
3186;DHT22;1604;53.700;10.252;2023-04-24T17:03:05;8.70;99.90
3186;DHT22;1604;53.700;10.252;2023-04-24T17:06:09;8.60;99.90
3186;DHT22;1604;53.700;10.252;2023-04-24T17:09:11;8.50;99.90
3186;DHT22;1604;53.700;10.252;2023-04-24T17:12:15;8.50;99.90
3186;DHT22;1604;53.700;10.252;2023-04-24T17:15:17;8.40;99.90
3186;DHT22;1604;53.700;10.252;2023-04-24T17:18:19;8.40;99.90
3186;DHT22;1604;53.700;10.252;2023-04-24T17:21:22;8.30;99.90
3186;DHT22;1604;53.700;10.252;2023-04-24T17:24:24;8.20;99.90
3186;DHT22;1604;53.700;10.252;2023-04-24T17:27:26;8.20;99.90
3186;DHT22;1604;53.700;10.252;2023-04-24T17:30:29;8.10;99.90
3186;DHT22;1604;53.700;10.252;2023-04-24T17:33:30;8.10;99.90
3186;DHT22;1604;53.700;10.252;2023-04-24T17:36:34;8.00;99.90
3186;DHT22;1604;53.700;10.252;2023-04-24T17:39:36;7.90;99.90
3186;DHT22;1604;53.700;10.252;2023-04-24T17:42:38;7.90;99.90
3186;DHT22;1604;53.700;10.252;2023-04-24T17:45:41;7.90;99.90
3186;DHT22;1604;53.700;10.252;2023-04-24T17:48:43;7.90;99.90
3186;DHT22;1604;53.700;10.252;2023-04-24T17:51:46;7.80;99.90
3186;DHT22;1604;53.700;10.252;2023-04-24T17:54:48;7.80;99.90
3186;DHT22;1604;53.700;10.252;2023-04-24T17:57:50;7.80;99.90
3186;DHT22;1604;53.700;10.252;2023-04-24T18:00:52;7.80;99.90
3186;DHT22;1604;53.700;10.252;2023-04-24T18:03:54;7.80;99.90
3186;DHT22;1604;53.700;10.252;2023-04-24T18:06:57;7.80;99.90
3186;DHT22;1604;53.700;10.252;2023-04-24T18:09:59;7.70;99.90
3186;DHT22;1604;53.700;10.252;2023-04-24T18:13:01;7.80;99.90
3186;DHT22;1604;53.700;10.252;2023-04-24T18:16:03;7.80;99.90
3186;DHT22;1604;53.700;10.252;2023-04-24T18:19:05;7.80;99.90
3186;DHT22;1604;53.700;10.252;2023-04-24T18:22:09;7.80;99.90
3186;DHT22;1604;53.700;10.252;2023-04-24T18:25:11;7.80;99.90
3186;DHT22;1604;53.700;10.252;2023-04-24T18:28:13;7.80;99.90
3186;DHT22;1604;53.700;10.252;2023-04-24T18:31:15;7.80;99.90
3186;DHT22;1604;53.700;10.252;2023-04-24T18:34:17;7.80;99.90
3186;DHT22;1604;53.700;10.252;2023-04-24T18:37:20;7.80;99.90
3186;DHT22;1604;53.700;10.252;2023-04-24T18:40:22;7.80;99.90
3186;DHT22;1604;53.700;10.252;2023-04-24T18:43:24;7.80;99.90
3186;DHT22;1604;53.700;10.252;2023-04-24T18:46:26;7.80;99.90
3186;DHT22;1604;53.700;10.252;2023-04-24T18:49:28;7.80;99.90
3186;DHT22;1604;53.700;10.252;2023-04-24T18:52:33;7.90;99.90
3186;DHT22;1604;53.700;10.252;2023-04-24T18:55:35;7.90;99.90
3186;DHT22;1604;53.700;10.252;2023-04-24T18:58:37;7.90;99.90
3186;DHT22;1604;53.700;10.252;2023-04-24T19:01:44;7.90;99.90
3186;DHT22;1604;53.700;10.252;2023-04-24T19:04:46;8.00;99.90
3186;DHT22;1604;53.700;10.252;2023-04-24T19:07:49;8.00;99.90
3186;DHT22;1604;53.700;10.252;2023-04-24T19:10:51;8.00;99.90
3186;DHT22;1604;53.700;10.252;2023-04-24T19:13:53;8.00;99.90
3186;DHT22;1604;53.700;10.252;2023-04-24T19:16:54;8.00;99.90
3186;DHT22;1604;53.700;10.252;2023-04-24T19:19:56;8.00;99.90
3186;DHT22;1604;53.700;10.252;2023-04-24T19:23:00;8.00;99.90
3186;DHT22;1604;53.700;10.252;2023-04-24T19:26:02;8.00;99.90
3186;DHT22;1604;53.700;10.252;2023-04-24T19:29:04;8.00;99.90
3186;DHT22;1604;53.700;10.252;2023-04-24T19:32:06;8.00;99.90
3186;DHT22;1604;53.700;10.252;2023-04-24T19:35:08;8.00;99.90
3186;DHT22;1604;53.700;10.252;2023-04-24T19:38:12;8.10;99.90
3186;DHT22;1604;53.700;10.252;2023-04-24T19:41:13;8.10;99.90